Time;durP1;ratioP1;P1;durP2;ratioP2;P2;SDS_P1;SDS_P2;PMS_P1;PMS_P2;Temp;Humidity;BMP_temperature;BMP_pressure;BME280_temperature;BME280_humidity;BME280_pressure;Samples;Min_cycle;Max_cycle;Signal;HPM_P1;HPM_P2
2022/08/19 00:01:18;;;;;;;;;;;18.00;99.90;;;;;;5063410;28;19932;-69
2022/08/19 00:03:45;;;;;;;;;;;17.90;99.90;;;;;;5085096;28;19925;-69
2022/08/19 00:06:12;;;;;;;;;;;17.90;99.90;;;;;;5056113;28;19925;-69
2022/08/19 00:08:40;;;;;;;;;;;17.80;99.90;;;;;;5086191;28;20510;-68
2022/08/19 00:11:07;;;;;;;;;;;17.80;99.90;;;;;;5067926;28;20015;-69
2022/08/19 00:13:34;;;;;;;;;;;17.70;99.90;;;;;;5067935;28;19929;-69
2022/08/19 00:16:01;;;;;;;;;;;17.70;99.90;;;;;;5088877;28;20277;-68
2022/08/19 00:18:28;;;;;;;;;;;17.70;99.90;;;;;;5070978;28;19931;-69
2022/08/19 00:20:55;;;;;;;;;;;17.60;99.90;;;;;;5072042;28;19929;-68
2022/08/19 00:23:22;;;;;;;;;;;17.60;99.90;;;;;;5065238;28;19925;-69
2022/08/19 00:25:50;;;;;;;;;;;17.60;99.90;;;;;;5089005;28;19970;-70
2022/08/19 00:28:17;;;;;;;;;;;17.60;99.90;;;;;;5072060;28;19989;-68
2022/08/19 00:30:44;;;;;;;;;;;17.60;99.90;;;;;;5077029;28;19929;-69
2022/08/19 00:33:10;;;;;;;;;;;17.50;99.90;;;;;;5067489;28;20337;-69
2022/08/19 00:35:38;;;;;;;;;;;17.50;99.90;;;;;;5072001;28;19928;-69
2022/08/19 00:38:06;;;;;;;;;;;17.50;99.90;;;;;;5082469;28;19970;-67
2022/08/19 00:40:33;;;;;;;;;;;17.50;99.90;;;;;;5065463;28;19925;-69
2022/08/19 00:43:01;;;;;;;;;;;17.50;99.90;;;;;;5082708;28;19978;-69
2022/08/19 00:45:30;;;;;;;;;;;17.40;99.90;;;;;;5071151;28;19924;-69
2022/08/19 00:47:57;;;;;;;;;;;17.40;99.90;;;;;;5078190;28;19924;-69
2022/08/19 00:50:24;;;;;;;;;;;17.30;99.90;;;;;;5073765;28;20341;-69
2022/08/19 00:52:51;;;;;;;;;;;17.30;99.90;;;;;;5071562;28;19932;-69
2022/08/19 00:55:19;;;;;;;;;;;17.20;99.90;;;;;;5071234;28;19924;-70
2022/08/19 00:57:48;;;;;;;;;;;17.20;99.90;;;;;;5063159;28;20453;-69
2022/08/19 01:00:18;;;;;;;;;;;17.20;99.90;;;;;;5064214;28;20268;-68
2022/08/19 01:02:45;;;;;;;;;;;17.20;99.90;;;;;;5063521;28;19924;-69
2022/08/19 01:05:14;;;;;;;;;;;17.20;99.90;;;;;;5068859;28;19932;-69
2022/08/19 01:07:41;;;;;;;;;;;17.20;99.90;;;;;;5069115;28;19956;-69
2022/08/19 01:10:10;;;;;;;;;;;17.20;99.90;;;;;;5070735;28;19924;-69
2022/08/19 01:12:37;;;;;;;;;;;17.10;99.90;;;;;;5086195;28;19929;-69
2022/08/19 01:15:06;;;;;;;;;;;17.10;99.90;;;;;;5070933;28;20395;-69
2022/08/19 01:17:35;;;;;;;;;;;17.10;99.90;;;;;;5070647;28;19959;-69
2022/08/19 01:20:02;;;;;;;;;;;17.10;99.90;;;;;;5069634;28;19932;-69
2022/08/19 01:22:31;;;;;;;;;;;17.10;99.90;;;;;;5063853;28;20339;-68
2022/08/19 01:24:58;;;;;;;;;;;17.00;99.90;;;;;;5070932;28;19934;-69
2022/08/19 01:27:25;;;;;;;;;;;17.00;99.90;;;;;;5071016;28;19925;-69
2022/08/19 01:29:51;;;;;;;;;;;17.00;99.90;;;;;;5070838;28;19932;-69
2022/08/19 01:32:19;;;;;;;;;;;17.00;99.90;;;;;;5072533;28;19933;-69
2022/08/19 01:34:47;;;;;;;;;;;17.00;99.90;;;;;;5087549;28;19924;-69
2022/08/19 01:37:15;;;;;;;;;;;17.00;99.90;;;;;;5077195;28;20485;-69
2022/08/19 01:39:43;;;;;;;;;;;17.00;99.90;;;;;;5087032;28;19933;-69
2022/08/19 01:42:11;;;;;;;;;;;17.10;99.90;;;;;;5070793;28;19931;-69
2022/08/19 01:44:39;;;;;;;;;;;17.10;99.90;;;;;;5070040;28;19951;-68
2022/08/19 01:47:06;;;;;;;;;;;17.00;99.90;;;;;;5070362;28;19925;-68
2022/08/19 01:49:33;;;;;;;;;;;17.00;99.90;;;;;;5070103;28;19925;-69
2022/08/19 01:52:00;;;;;;;;;;;17.00;99.90;;;;;;5070950;28;19931;-69
2022/08/19 01:54:27;;;;;;;;;;;17.00;99.90;;;;;;5079769;28;19925;-69
2022/08/19 01:56:57;;;;;;;;;;;17.00;99.90;;;;;;5070721;28;19932;-68
2022/08/19 01:59:24;;;;;;;;;;;17.00;99.90;;;;;;5070189;28;19947;-69
2022/08/19 02:01:50;;;;;;;;;;;16.90;99.90;;;;;;5081515;28;19928;-69
2022/08/19 02:04:17;;;;;;;;;;;16.90;99.90;;;;;;5078578;28;19924;-68
2022/08/19 02:06:44;;;;;;;;;;;16.90;99.90;;;;;;5070463;28;19932;-69
2022/08/19 02:09:11;;;;;;;;;;;16.80;99.90;;;;;;5069901;28;19924;-69
2022/08/19 02:11:38;;;;;;;;;;;16.80;99.90;;;;;;5067772;28;19929;-69
2022/08/19 02:14:08;;;;;;;;;;;16.80;99.90;;;;;;5070501;28;19924;-69
2022/08/19 02:16:35;;;;;;;;;;;16.80;99.90;;;;;;5078587;28;20337;-69
2022/08/19 02:19:02;;;;;;;;;;;16.80;99.90;;;;;;5070077;28;19931;-69
2022/08/19 02:21:29;;;;;;;;;;;16.80;99.90;;;;;;5069381;28;20340;-69
2022/08/19 02:23:56;;;;;;;;;;;16.70;99.90;;;;;;5070284;28;19925;-69
2022/08/19 02:26:23;;;;;;;;;;;16.80;99.90;;;;;;5065984;28;20324;-70
2022/08/19 02:28:50;;;;;;;;;;;16.80;99.90;;;;;;5077764;28;19925;-66
2022/08/19 02:31:19;;;;;;;;;;;16.90;99.90;;;;;;5076848;28;19932;-69
2022/08/19 02:33:46;;;;;;;;;;;16.90;99.90;;;;;;5087453;28;19932;-69
2022/08/19 02:36:14;;;;;;;;;;;16.90;99.90;;;;;;5072517;28;19978;-70
2022/08/19 02:38:40;;;;;;;;;;;16.90;99.90;;;;;;5071088;28;19925;-68
2022/08/19 02:41:09;;;;;;;;;;;17.00;99.90;;;;;;5082244;28;19920;-69
2022/08/19 02:43:36;;;;;;;;;;;17.00;99.90;;;;;;5072878;28;19928;-69
2022/08/19 02:46:11;;;;;;;;;;;17.00;99.90;;;;;;5073887;28;19925;-68
2022/08/19 02:48:40;;;;;;;;;;;17.00;99.90;;;;;;5072305;28;20028;-69
2022/08/19 02:51:07;;;;;;;;;;;17.00;99.90;;;;;;5080682;28;19979;-69
2022/08/19 02:53:34;;;;;;;;;;;17.00;99.90;;;;;;5090278;28;19978;-68
2022/08/19 02:56:00;;;;;;;;;;;17.00;99.90;;;;;;5073936;28;20533;-68
2022/08/19 02:58:27;;;;;;;;;;;16.90;99.90;;;;;;5073990;28;19925;-69
2022/08/19 03:00:55;;;;;;;;;;;17.00;99.90;;;;;;5070684;28;19932;-68
2022/08/19 03:03:23;;;;;;;;;;;17.00;99.90;;;;;;5085078;28;19925;-68
2022/08/19 03:05:51;;;;;;;;;;;16.90;99.90;;;;;;5071754;28;19972;-68
2022/08/19 03:08:18;;;;;;;;;;;16.90;99.90;;;;;;5088456;28;19978;-68
2022/08/19 03:10:46;;;;;;;;;;;17.00;99.90;;;;;;5072962;28;19932;-69
2022/08/19 03:13:14;;;;;;;;;;;16.90;99.90;;;;;;5076864;28;19928;-69
2022/08/19 03:15:42;;;;;;;;;;;17.00;99.90;;;;;;5073800;28;19974;-68
2022/08/19 03:18:09;;;;;;;;;;;16.90;99.90;;;;;;5073310;28;20467;-69
2022/08/19 03:20:40;;;;;;;;;;;16.90;99.90;;;;;;5072985;28;20300;-69
2022/08/19 03:23:09;;;;;;;;;;;16.90;99.90;;;;;;5084492;28;19929;-68
2022/08/19 03:25:37;;;;;;;;;;;16.90;99.90;;;;;;5065237;28;19929;-69
2022/08/19 03:28:04;;;;;;;;;;;16.80;99.90;;;;;;5071840;28;19928;-70
2022/08/19 03:30:31;;;;;;;;;;;16.80;99.90;;;;;;5078364;28;19924;-68
2022/08/19 03:32:58;;;;;;;;;;;16.80;99.90;;;;;;5073499;28;19924;-68
2022/08/19 03:35:24;;;;;;;;;;;16.80;99.90;;;;;;5070449;28;20419;-69
2022/08/19 03:37:52;;;;;;;;;;;16.70;99.90;;;;;;5082102;28;19929;-69
2022/08/19 03:40:20;;;;;;;;;;;16.70;99.90;;;;;;5074190;28;19932;-67
2022/08/19 03:42:47;;;;;;;;;;;16.70;99.90;;;;;;5072880;28;20273;-66
2022/08/19 03:45:14;;;;;;;;;;;16.70;99.90;;;;;;5086869;28;19932;-69
2022/08/19 03:47:41;;;;;;;;;;;16.70;99.90;;;;;;5072693;28;19924;-69
2022/08/19 03:50:08;;;;;;;;;;;16.70;99.90;;;;;;5071574;28;19963;-68
2022/08/19 03:52:35;;;;;;;;;;;16.60;99.90;;;;;;5071561;28;19928;-69
2022/08/19 03:55:02;;;;;;;;;;;16.70;99.90;;;;;;5080720;28;19970;-68
2022/08/19 03:57:30;;;;;;;;;;;16.70;99.90;;;;;;5072764;28;19946;-66
2022/08/19 03:59:57;;;;;;;;;;;16.70;99.90;;;;;;5079103;28;19925;-68
2022/08/19 04:02:24;;;;;;;;;;;16.70;99.90;;;;;;5072802;28;19943;-69
2022/08/19 04:04:54;;;;;;;;;;;16.70;99.90;;;;;;5073029;28;19924;-68
2022/08/19 04:07:21;;;;;;;;;;;16.70;99.90;;;;;;5072545;28;19928;-69
2022/08/19 04:09:48;;;;;;;;;;;16.70;99.90;;;;;;5072352;28;19963;-68
2022/08/19 04:12:15;;;;;;;;;;;16.60;99.90;;;;;;5072809;28;20009;-68
2022/08/19 04:14:44;;;;;;;;;;;16.70;99.90;;;;;;5070037;28;20337;-69
2022/08/19 04:17:14;;;;;;;;;;;16.70;99.90;;;;;;5074929;28;20419;-69
2022/08/19 04:19:41;;;;;;;;;;;16.70;99.90;;;;;;5073283;28;19963;-69
2022/08/19 04:22:08;;;;;;;;;;;16.70;99.90;;;;;;5084996;28;20307;-68
2022/08/19 04:24:35;;;;;;;;;;;16.70;99.90;;;;;;5087750;28;19935;-68
2022/08/19 04:27:02;;;;;;;;;;;16.70;99.90;;;;;;5071374;28;20277;-68
2022/08/19 04:29:30;;;;;;;;;;;16.70;99.90;;;;;;5081937;28;20593;-68
2022/08/19 04:31:58;;;;;;;;;;;16.70;99.90;;;;;;5071294;28;19924;-69
2022/08/19 04:34:26;;;;;;;;;;;16.70;99.90;;;;;;5072921;28;19928;-69
2022/08/19 04:36:53;;;;;;;;;;;16.70;99.90;;;;;;5069720;28;19958;-68
2022/08/19 04:39:21;;;;;;;;;;;16.70;99.90;;;;;;5061536;28;19924;-68
2022/08/19 04:44:33;;;;;;;;;;;16.80;99.90;;;;;;5070831;28;19927;-70
2022/08/19 04:47:03;;;;;;;;;;;16.80;99.90;;;;;;5087172;28;19936;-70
2022/08/19 04:49:29;;;;;;;;;;;16.80;99.90;;;;;;5066701;28;19924;-67
2022/08/19 04:51:56;;;;;;;;;;;16.90;99.90;;;;;;5086107;28;19943;-70
2022/08/19 04:54:24;;;;;;;;;;;16.90;99.90;;;;;;5089327;28;19928;-67
2022/08/19 04:56:52;;;;;;;;;;;16.90;99.90;;;;;;5069440;28;20277;-67
2022/08/19 04:59:20;;;;;;;;;;;17.00;99.90;;;;;;5068936;28;19924;-70
2022/08/19 05:01:49;;;;;;;;;;;17.00;99.90;;;;;;5062427;28;19932;-67
2022/08/19 05:04:20;;;;;;;;;;;17.10;99.90;;;;;;5066862;28;20207;-68
2022/08/19 05:06:47;;;;;;;;;;;17.10;99.90;;;;;;5059596;28;19924;-69
2022/08/19 05:09:15;;;;;;;;;;;17.20;99.90;;;;;;5068520;28;19951;-68
2022/08/19 05:11:42;;;;;;;;;;;17.20;99.90;;;;;;5070251;28;20319;-68
2022/08/19 05:14:12;;;;;;;;;;;17.30;99.90;;;;;;5070159;28;19931;-68
2022/08/19 05:16:39;;;;;;;;;;;17.30;99.90;;;;;;5070065;28;19933;-68
2022/08/19 05:24:37;;;;;;;;;;;17.30;99.90;;;;;;5066200;28;19925;-69
2022/08/19 05:27:05;;;;;;;;;;;17.40;99.90;;;;;;5062577;28;19924;-68
2022/08/19 05:29:33;;;;;;;;;;;17.40;99.90;;;;;;5068913;28;19925;-69
2022/08/19 05:32:01;;;;;;;;;;;17.40;99.90;;;;;;5062635;28;19929;-69
2022/08/19 05:34:28;;;;;;;;;;;17.40;99.90;;;;;;5086074;28;19966;-69
2022/08/19 05:36:57;;;;;;;;;;;17.50;99.90;;;;;;5078190;28;19925;-69
2022/08/19 05:39:25;;;;;;;;;;;17.60;99.90;;;;;;5069132;28;19935;-68
2022/08/19 05:41:54;;;;;;;;;;;17.70;99.90;;;;;;5080106;28;19925;-66
2022/08/19 05:44:21;;;;;;;;;;;17.70;99.90;;;;;;5068496;28;19932;-69
2022/08/19 05:46:52;;;;;;;;;;;17.80;99.90;;;;;;5069755;28;19925;-69
2022/08/19 05:49:20;;;;;;;;;;;17.80;99.90;;;;;;5068971;28;19932;-69
2022/08/19 05:51:47;;;;;;;;;;;17.80;99.90;;;;;;5069689;28;20361;-69
2022/08/19 05:54:16;;;;;;;;;;;17.80;99.90;;;;;;5086264;28;19924;-69
2022/08/19 05:56:43;;;;;;;;;;;17.90;99.90;;;;;;5069863;28;19928;-69
2022/08/19 05:59:11;;;;;;;;;;;17.90;99.90;;;;;;5068856;28;19931;-69
2022/08/19 06:01:38;;;;;;;;;;;17.90;99.90;;;;;;5069717;28;19925;-69
2022/08/19 06:04:05;;;;;;;;;;;18.00;99.90;;;;;;5082074;28;19924;-69
2022/08/19 06:06:33;;;;;;;;;;;18.00;99.90;;;;;;5067672;28;19943;-68
2022/08/19 06:09:00;;;;;;;;;;;18.00;99.90;;;;;;5080364;28;20369;-69
2022/08/19 06:11:35;;;;;;;;;;;18.00;99.90;;;;;;5069562;28;19931;-69
2022/08/19 06:14:04;;;;;;;;;;;18.10;99.90;;;;;;5075374;28;19931;-69
2022/08/19 06:16:33;;;;;;;;;;;18.10;99.90;;;;;;5065957;28;20331;-69
2022/08/19 06:19:01;;;;;;;;;;;18.20;99.90;;;;;;5068917;28;19928;-69
2022/08/19 06:21:28;;;;;;;;;;;18.30;99.90;;;;;;5069174;28;19932;-68
2022/08/19 06:23:56;;;;;;;;;;;18.30;99.90;;;;;;5082510;28;19924;-69
2022/08/19 06:26:23;;;;;;;;;;;18.40;99.90;;;;;;5073272;28;19929;-69
2022/08/19 06:28:52;;;;;;;;;;;18.40;99.90;;;;;;5077015;28;19963;-67
2022/08/19 06:31:23;;;;;;;;;;;18.50;99.90;;;;;;5069145;28;19936;-69
2022/08/19 06:33:50;;;;;;;;;;;18.60;99.90;;;;;;5068977;28;19989;-69
2022/08/19 06:36:18;;;;;;;;;;;18.70;99.90;;;;;;5077888;28;19988;-70
2022/08/19 06:38:45;;;;;;;;;;;18.80;99.90;;;;;;5068693;28;19924;-67
2022/08/19 06:41:12;;;;;;;;;;;18.80;99.90;;;;;;5071932;28;19924;-69
2022/08/19 06:43:38;;;;;;;;;;;18.80;99.90;;;;;;5077514;28;19987;-70
2022/08/19 06:46:10;;;;;;;;;;;18.80;99.90;;;;;;5069093;28;19932;-70
2022/08/19 06:48:37;;;;;;;;;;;18.80;99.90;;;;;;5068727;28;19932;-70
2022/08/19 06:51:05;;;;;;;;;;;18.80;99.90;;;;;;5073636;28;19932;-69
2022/08/19 06:53:32;;;;;;;;;;;18.90;99.90;;;;;;5070796;28;19956;-69
2022/08/19 06:56:01;;;;;;;;;;;19.00;99.90;;;;;;5062633;28;19931;-69
2022/08/19 06:58:31;;;;;;;;;;;19.00;99.90;;;;;;5074819;28;20446;-69
2022/08/19 07:01:00;;;;;;;;;;;19.10;99.90;;;;;;5080244;28;19924;-69
2022/08/19 07:03:30;;;;;;;;;;;19.00;99.90;;;;;;5070656;28;20342;-69
2022/08/19 07:05:58;;;;;;;;;;;18.90;99.90;;;;;;5075601;28;19974;-69
2022/08/19 07:08:26;;;;;;;;;;;19.00;99.90;;;;;;5068606;28;19932;-69
2022/08/19 07:10:53;;;;;;;;;;;19.10;99.90;;;;;;5068401;28;19972;-69
2022/08/19 07:13:21;;;;;;;;;;;19.00;99.90;;;;;;5068959;28;19929;-69
2022/08/19 07:15:50;;;;;;;;;;;19.10;99.90;;;;;;5078538;28;19935;-69
2022/08/19 07:18:17;;;;;;;;;;;19.20;99.90;;;;;;5070171;28;19998;-69
2022/08/19 07:20:45;;;;;;;;;;;19.20;99.90;;;;;;5083369;28;19947;-69
2022/08/19 07:23:12;;;;;;;;;;;19.30;99.90;;;;;;5086135;28;19936;-70
2022/08/19 07:25:39;;;;;;;;;;;19.30;99.90;;;;;;5071714;28;19936;-69
2022/08/19 07:28:07;;;;;;;;;;;19.40;99.90;;;;;;5078976;28;19929;-70
2022/08/19 07:30:36;;;;;;;;;;;19.50;99.90;;;;;;5067738;28;19931;-69
2022/08/19 07:33:04;;;;;;;;;;;19.50;99.90;;;;;;5084736;28;19932;-69
2022/08/19 07:35:31;;;;;;;;;;;19.60;99.90;;;;;;5070564;28;20036;-69
2022/08/19 07:38:02;;;;;;;;;;;19.70;99.90;;;;;;5079104;28;19932;-71
2022/08/19 07:40:29;;;;;;;;;;;19.90;99.90;;;;;;5081778;28;19932;-68
2022/08/19 07:42:55;;;;;;;;;;;19.90;99.90;;;;;;5079151;28;19936;-69
2022/08/19 07:45:22;;;;;;;;;;;19.90;99.90;;;;;;5070387;28;19925;-69
2022/08/19 07:47:49;;;;;;;;;;;20.10;99.90;;;;;;5071589;28;19982;-69
2022/08/19 07:50:17;;;;;;;;;;;20.20;99.90;;;;;;5082501;28;19928;-67
2022/08/19 07:52:44;;;;;;;;;;;20.40;99.90;;;;;;5065587;28;19932;-69
2022/08/19 07:55:13;;;;;;;;;;;20.50;99.90;;;;;;5077855;28;20379;-68
2022/08/19 07:57:39;;;;;;;;;;;20.50;99.90;;;;;;5075684;28;19932;-68
2022/08/19 08:00:07;;;;;;;;;;;20.60;99.90;;;;;;5078326;28;19928;-68
2022/08/19 08:02:39;;;;;;;;;;;20.60;99.90;;;;;;5072809;28;19995;-67
2022/08/19 08:10:36;;;;;;;;;;;21.20;99.90;;;;;;5069998;28;19925;-70
2022/08/19 08:13:05;;;;;;;;;;;21.30;99.90;;;;;;5071615;28;19932;-70
2022/08/19 08:15:32;;;;;;;;;;;21.40;99.90;;;;;;5072448;28;19924;-66
2022/08/19 08:17:59;;;;;;;;;;;21.40;99.90;;;;;;5071219;28;19939;-69
2022/08/19 08:20:26;;;;;;;;;;;21.40;99.90;;;;;;5072750;28;19936;-70
2022/08/19 08:25:38;;;;;;;;;;;21.50;99.90;;;;;;5085488;28;20323;-69
2022/08/19 08:28:07;;;;;;;;;;;21.60;99.90;;;;;;5070995;28;19932;-70
2022/08/19 08:30:35;;;;;;;;;;;21.60;99.90;;;;;;5077395;28;20038;-69
2022/08/19 08:33:02;;;;;;;;;;;21.70;99.90;;;;;;5071170;28;20015;-69
2022/08/19 08:35:29;;;;;;;;;;;21.90;99.90;;;;;;5072521;28;19932;-70
2022/08/19 08:37:56;;;;;;;;;;;21.90;99.90;;;;;;5078785;28;19928;-70
2022/08/19 08:40:28;;;;;;;;;;;22.00;99.90;;;;;;5070545;28;19924;-69
2022/08/19 08:43:00;;;;;;;;;;;22.10;99.90;;;;;;5071627;28;19924;-70
2022/08/19 08:45:27;;;;;;;;;;;21.90;99.90;;;;;;5074828;28;20027;-69
2022/08/19 08:47:58;;;;;;;;;;;21.90;99.90;;;;;;5070756;28;20272;-69
2022/08/19 08:50:30;;;;;;;;;;;21.90;99.90;;;;;;5075924;28;19924;-70
2022/08/19 08:52:58;;;;;;;;;;;21.90;99.90;;;;;;5070662;28;19935;-69
2022/08/19 08:55:26;;;;;;;;;;;21.80;99.90;;;;;;5080773;28;19925;-68
2022/08/19 08:57:56;;;;;;;;;;;21.70;99.90;;;;;;5064519;28;19929;-69
2022/08/19 09:00:26;;;;;;;;;;;21.60;99.90;;;;;;5074522;28;19940;-71
2022/08/19 09:02:53;;;;;;;;;;;21.50;99.90;;;;;;5070597;28;19925;-70
2022/08/19 09:05:21;;;;;;;;;;;21.30;99.90;;;;;;5079299;28;20027;-69
2022/08/19 09:07:51;;;;;;;;;;;21.40;99.90;;;;;;5070199;28;19967;-69
2022/08/19 09:10:21;;;;;;;;;;;21.40;99.90;;;;;;5071942;28;19936;-70
2022/08/19 09:12:53;;;;;;;;;;;21.40;99.90;;;;;;5064323;28;19928;-69
2022/08/19 09:15:23;;;;;;;;;;;21.80;99.90;;;;;;5084976;28;19929;-68
2022/08/19 09:17:52;;;;;;;;;;;22.00;99.90;;;;;;5070732;28;19955;-67
2022/08/19 09:20:20;;;;;;;;;;;22.20;99.90;;;;;;5071031;28;19925;-70
2022/08/19 09:22:48;;;;;;;;;;;22.30;99.90;;;;;;5071467;28;19928;-69
2022/08/19 09:25:20;;;;;;;;;;;22.20;99.90;;;;;;5065758;28;19975;-70
2022/08/19 09:27:47;;;;;;;;;;;22.20;99.90;;;;;;5065817;28;19939;-70
2022/08/19 09:30:15;;;;;;;;;;;22.20;99.90;;;;;;5070714;28;19928;-70
2022/08/19 09:32:43;;;;;;;;;;;22.40;99.90;;;;;;5071052;28;19924;-70
2022/08/19 09:35:12;;;;;;;;;;;22.40;99.90;;;;;;5070561;28;20011;-70
2022/08/19 09:37:39;;;;;;;;;;;22.40;99.90;;;;;;5069734;28;19933;-71
2022/08/19 09:40:06;;;;;;;;;;;22.50;99.90;;;;;;5069954;28;19924;-70
2022/08/19 09:42:33;;;;;;;;;;;22.50;99.90;;;;;;5069141;28;19925;-70
2022/08/19 09:45:00;;;;;;;;;;;22.70;99.90;;;;;;5082109;28;19924;-70
2022/08/19 09:47:27;;;;;;;;;;;22.70;99.90;;;;;;5086159;28;19925;-71
2022/08/19 09:49:54;;;;;;;;;;;22.80;99.90;;;;;;5082351;28;19929;-70
2022/08/19 09:52:23;;;;;;;;;;;22.80;99.90;;;;;;5078651;28;20449;-69
2022/08/19 09:54:52;;;;;;;;;;;22.80;99.90;;;;;;5069645;28;19924;-69
2022/08/19 09:57:19;;;;;;;;;;;22.80;99.90;;;;;;5071161;28;19924;-71
2022/08/19 09:59:46;;;;;;;;;;;22.80;99.90;;;;;;5077649;28;20003;-69
2022/08/19 10:02:13;;;;;;;;;;;22.80;99.90;;;;;;5082766;28;19924;-70
2022/08/19 10:07:35;;;;;;;;;;;22.70;99.90;;;;;;5014122;28;19928;-70
2022/08/19 10:10:01;;;;;;;;;;;22.90;99.90;;;;;;5069885;28;20410;-70
2022/08/19 10:12:28;;;;;;;;;;;23.10;99.90;;;;;;5068473;28;19951;-70
2022/08/19 10:14:55;;;;;;;;;;;23.00;99.90;;;;;;5083293;28;19924;-70
2022/08/19 10:17:22;;;;;;;;;;;23.00;99.90;;;;;;5073831;28;19924;-70
2022/08/19 10:19:49;;;;;;;;;;;23.00;99.90;;;;;;5079677;28;19925;-69
2022/08/19 10:22:16;;;;;;;;;;;23.30;99.90;;;;;;5062453;28;19925;-69
2022/08/19 10:24:44;;;;;;;;;;;23.40;99.90;;;;;;5083998;28;19960;-70
2022/08/19 10:27:12;;;;;;;;;;;23.80;99.90;;;;;;5078126;28;19974;-69
2022/08/19 10:29:39;;;;;;;;;;;23.70;99.90;;;;;;5070070;28;19963;-69
2022/08/19 10:32:08;;;;;;;;;;;24.00;99.90;;;;;;5070624;28;19925;-69
2022/08/19 10:34:35;;;;;;;;;;;24.60;99.90;;;;;;5070006;28;19925;-69
2022/08/19 10:37:04;;;;;;;;;;;24.80;99.90;;;;;;5087353;28;19997;-69
2022/08/19 10:39:31;;;;;;;;;;;24.40;99.90;;;;;;5068103;28;20020;-69
2022/08/19 10:42:00;;;;;;;;;;;24.50;99.90;;;;;;5070704;28;20353;-69
2022/08/19 10:44:29;;;;;;;;;;;24.30;99.90;;;;;;5069614;28;19924;-69
2022/08/19 10:46:56;;;;;;;;;;;24.20;99.90;;;;;;5074985;28;20350;-69
2022/08/19 10:49:23;;;;;;;;;;;24.10;99.90;;;;;;5068330;28;19928;-69
2022/08/19 10:57:23;;;;;;;;;;;25.30;99.90;;;;;;5073688;28;19946;-69
2022/08/19 10:59:50;;;;;;;;;;;25.30;99.90;;;;;;5072943;28;19925;-69
2022/08/19 11:02:17;;;;;;;;;;;25.20;99.90;;;;;;5067352;28;20043;-69
2022/08/19 11:04:44;;;;;;;;;;;25.40;99.90;;;;;;5064862;28;19924;-69
2022/08/19 11:07:11;;;;;;;;;;;25.50;99.90;;;;;;5081640;22;19930;-70
2022/08/19 11:09:39;;;;;;;;;;;25.70;99.90;;;;;;5035469;28;19932;-69
2022/08/19 11:12:07;;;;;;;;;;;25.70;99.90;;;;;;5031436;28;19951;-69
2022/08/19 11:14:35;;;;;;;;;;;25.70;99.90;;;;;;5047555;28;19925;-70
2022/08/19 11:17:02;;;;;;;;;;;25.70;99.90;;;;;;5032616;28;20012;-69
2022/08/19 11:19:29;;;;;;;;;;;25.60;99.90;;;;;;5016684;28;19975;-69
2022/08/19 11:21:56;;;;;;;;;;;25.20;99.90;;;;;;5016939;28;20040;-70
2022/08/19 11:24:23;;;;;;;;;;;25.00;99.90;;;;;;5021980;28;20109;-69
2022/08/19 11:26:51;;;;;;;;;;;25.30;99.90;;;;;;5016713;28;20016;-69
2022/08/19 11:29:19;;;;;;;;;;;26.00;99.90;;;;;;5015393;28;20004;-69
2022/08/19 11:31:48;;;;;;;;;;;26.00;99.90;;;;;;5033094;28;19925;-69
2022/08/19 11:34:16;;;;;;;;;;;25.80;99.90;;;;;;5020174;28;19925;-70
2022/08/19 11:36:44;;;;;;;;;;;27.50;99.90;;;;;;5022639;28;19932;-70
2022/08/19 11:39:12;;;;;;;;;;;28.30;99.90;;;;;;5014881;28;20036;-70
2022/08/19 11:41:39;;;;;;;;;;;29.80;99.90;;;;;;5015771;28;19941;-70
2022/08/19 11:44:07;;;;;;;;;;;30.20;99.90;;;;;;5018192;28;19972;-70
2022/08/19 11:46:35;;;;;;;;;;;31.60;99.90;;;;;;5019454;28;20424;-70
2022/08/19 11:49:04;;;;;;;;;;;31.80;99.90;;;;;;5015185;28;20031;-69
2022/08/19 11:51:31;;;;;;;;;;;32.90;99.90;;;;;;5016947;28;19976;-70
2022/08/19 11:53:59;;;;;;;;;;;32.60;99.90;;;;;;5015056;28;20459;-70
2022/08/19 11:56:27;;;;;;;;;;;32.60;99.90;;;;;;5013339;28;19933;-70
2022/08/19 11:58:53;;;;;;;;;;;32.70;99.90;;;;;;5015157;28;19929;-70
2022/08/19 12:01:22;;;;;;;;;;;33.60;99.90;;;;;;5016532;28;19933;-70
2022/08/19 12:03:50;;;;;;;;;;;33.50;99.90;;;;;;5019075;28;19929;-70
2022/08/19 12:06:20;;;;;;;;;;;32.60;99.90;;;;;;5016088;28;19933;-70
2022/08/19 12:08:47;;;;;;;;;;;33.00;99.90;;;;;;5016111;28;20408;-71
2022/08/19 12:11:14;;;;;;;;;;;33.30;99.90;;;;;;5016597;28;19925;-71
2022/08/19 12:13:45;;;;;;;;;;;33.00;99.90;;;;;;5021501;28;19967;-71
2022/08/19 12:16:13;;;;;;;;;;;33.90;99.90;;;;;;5015163;28;19925;-71
2022/08/19 12:18:41;;;;;;;;;;;34.90;99.90;;;;;;5019136;28;19926;-68
2022/08/19 12:21:09;;;;;;;;;;;34.50;99.90;;;;;;5020884;28;19925;-69
2022/08/19 12:23:38;;;;;;;;;;;33.40;99.90;;;;;;5016057;28;19987;-68
2022/08/19 12:26:05;;;;;;;;;;;33.60;99.90;;;;;;5016735;28;19976;-70
2022/08/19 12:28:32;;;;;;;;;;;33.90;99.90;;;;;;5018514;28;19929;-70
2022/08/19 12:30:58;;;;;;;;;;;34.10;99.90;;;;;;5015874;28;20352;-70
2022/08/19 12:33:27;;;;;;;;;;;34.80;99.90;;;;;;5023384;28;19934;-70
2022/08/19 12:35:55;;;;;;;;;;;34.40;99.90;;;;;;5014817;28;20316;-70
2022/08/19 12:38:23;;;;;;;;;;;32.70;99.90;;;;;;5010324;28;19932;-71
2022/08/19 12:40:52;;;;;;;;;;;33.40;99.90;;;;;;5008452;28;19926;-71
2022/08/19 12:43:20;;;;;;;;;;;33.50;99.90;;;;;;5015588;28;20028;-71
2022/08/19 12:45:46;;;;;;;;;;;33.90;99.90;;;;;;5011324;28;19929;-71
2022/08/19 12:48:14;;;;;;;;;;;31.60;99.90;;;;;;4999344;28;20353;-71
2022/08/19 12:50:41;;;;;;;;;;;31.80;99.90;;;;;;5010340;28;19925;-71
2022/08/19 12:53:07;;;;;;;;;;;31.70;99.90;;;;;;5015251;28;19929;-70
2022/08/19 12:55:34;;;;;;;;;;;31.70;99.90;;;;;;5014763;28;19980;-71
2022/08/19 12:58:03;;;;;;;;;;;32.00;99.90;;;;;;5023263;28;19925;-71
2022/08/19 13:00:30;;;;;;;;;;;32.60;99.90;;;;;;5016317;28;19941;-74
2022/08/19 13:02:57;;;;;;;;;;;33.30;99.90;;;;;;5020884;28;20023;-72
2022/08/19 13:05:26;;;;;;;;;;;33.80;99.90;;;;;;5012957;28;19925;-72
2022/08/19 13:07:55;;;;;;;;;;;34.20;99.90;;;;;;5013915;28;19926;-71
2022/08/19 13:10:22;;;;;;;;;;;34.80;99.90;;;;;;5013709;28;19932;-71
2022/08/19 13:12:50;;;;;;;;;;;34.70;99.90;;;;;;5016990;28;20464;-71
2022/08/19 13:15:20;;;;;;;;;;;35.40;99.90;;;;;;5017135;28;20305;-70
2022/08/19 13:17:48;;;;;;;;;;;34.40;99.90;;;;;;5021699;28;19976;-70
2022/08/19 13:20:15;;;;;;;;;;;34.20;99.90;;;;;;5017018;28;20374;-71
2022/08/19 13:22:44;;;;;;;;;;;35.20;99.90;;;;;;5017072;28;19926;-70
2022/08/19 13:25:11;;;;;;;;;;;35.00;99.90;;;;;;5014951;28;20025;-71
2022/08/19 13:27:38;;;;;;;;;;;34.70;99.90;;;;;;5013757;28;19972;-71
2022/08/19 13:35:37;;;;;;;;;;;33.10;99.90;;;;;;5014632;28;19932;-71
2022/08/19 13:38:04;;;;;;;;;;;34.10;99.90;;;;;;5013632;28;19937;-71
2022/08/19 13:40:33;;;;;;;;;;;34.90;99.90;;;;;;5021709;28;19925;-70
2022/08/19 13:43:01;;;;;;;;;;;35.40;99.90;;;;;;5009437;28;19929;-70
2022/08/19 13:45:29;;;;;;;;;;;35.50;99.90;;;;;;5019628;28;19925;-70
2022/08/19 13:47:58;;;;;;;;;;;35.00;99.90;;;;;;5013602;28;19980;-70
2022/08/19 13:50:26;;;;;;;;;;;35.10;99.90;;;;;;5023530;28;19925;-71
2022/08/19 13:52:53;;;;;;;;;;;35.60;99.90;;;;;;5011262;28;19933;-71
2022/08/19 13:55:20;;;;;;;;;;;35.80;99.90;;;;;;5012547;28;19937;-71
2022/08/19 13:57:51;;;;;;;;;;;33.80;99.90;;;;;;5016555;28;20400;-71
2022/08/19 14:00:18;;;;;;;;;;;31.90;99.90;;;;;;5012983;28;19945;-71
2022/08/19 14:02:46;;;;;;;;;;;31.70;99.90;;;;;;5010284;28;19925;-71
2022/08/19 14:05:16;;;;;;;;;;;32.80;99.90;;;;;;5011704;28;19926;-71
2022/08/19 14:07:43;;;;;;;;;;;32.80;99.90;;;;;;5012918;28;19926;-71
2022/08/19 14:10:10;;;;;;;;;;;33.50;99.90;;;;;;5010526;28;19929;-71
2022/08/19 14:12:37;;;;;;;;;;;33.60;99.90;;;;;;5009911;28;19926;-71
2022/08/19 14:15:05;;;;;;;;;;;33.30;99.90;;;;;;5020115;28;19979;-71
2022/08/19 14:17:34;;;;;;;;;;;32.80;99.90;;;;;;5017225;28;19925;-71
2022/08/19 14:20:03;;;;;;;;;;;31.40;99.90;;;;;;5010337;28;19933;-71
2022/08/19 14:22:31;;;;;;;;;;;30.60;99.90;;;;;;5014672;28;19933;-72
2022/08/19 14:24:58;;;;;;;;;;;30.80;99.90;;;;;;5011580;28;19972;-70
2022/08/19 14:27:25;;;;;;;;;;;31.80;99.90;;;;;;5017797;28;19937;-70
2022/08/19 14:29:52;;;;;;;;;;;32.10;99.90;;;;;;5016658;28;19933;-71
2022/08/19 14:32:19;;;;;;;;;;;32.40;99.90;;;;;;5015770;28;19987;-70
2022/08/19 14:34:46;;;;;;;;;;;32.20;99.90;;;;;;5021282;28;19932;-71
2022/08/19 14:37:14;;;;;;;;;;;31.30;99.90;;;;;;5013237;28;20493;-71
2022/08/19 14:39:42;;;;;;;;;;;30.90;99.90;;;;;;5019920;28;19929;-71
2022/08/19 14:42:09;;;;;;;;;;;30.70;99.90;;;;;;5018675;28;19932;-71
2022/08/19 14:44:36;;;;;;;;;;;29.80;99.90;;;;;;5021980;28;19925;-70
2022/08/19 14:47:03;;;;;;;;;;;29.50;99.90;;;;;;5026393;28;19925;-71
2022/08/19 14:49:30;;;;;;;;;;;29.50;99.90;;;;;;5011131;28;19929;-71